createdAt,value
2016-06-28T00:00:03.232Z,1012.59
2016-06-28T00:00:33.207Z,1012.6
2016-06-28T00:01:03.231Z,1012.61
2016-06-28T00:01:33.251Z,1012.61
2016-06-28T00:02:03.245Z,1012.61
2016-06-28T00:02:33.285Z,1012.59
2016-06-28T00:03:03.287Z,1012.59
2016-06-28T00:03:33.321Z,1012.61
2016-06-28T00:04:03.320Z,1012.59
2016-06-28T00:04:33.362Z,1012.58
2016-06-28T00:05:03.358Z,1012.6
2016-06-28T00:05:33.359Z,1012.61
2016-06-28T00:06:03.370Z,1012.6
2016-06-28T00:06:33.399Z,1012.6
2016-06-28T00:07:03.441Z,1012.6
2016-06-28T00:07:33.417Z,1012.64
2016-06-28T00:08:03.481Z,1012.61
2016-06-28T00:08:33.470Z,1012.63
2016-06-28T00:09:03.468Z,1012.61
2016-06-28T00:09:33.453Z,1012.63
2016-06-28T00:10:03.503Z,1012.63
2016-06-28T00:10:33.561Z,1012.65
2016-06-28T00:11:03.530Z,1012.65
2016-06-28T00:11:33.538Z,1012.62
2016-06-28T00:12:02.954Z,1012.64
2016-06-28T00:12:33.552Z,1012.62
2016-06-28T00:13:03.591Z,1012.63
2016-06-28T00:13:33.585Z,1012.64
2016-06-28T00:14:03.651Z,1012.65
2016-06-28T00:14:33.629Z,1012.67
2016-06-28T00:15:03.632Z,1012.67
2016-06-28T00:15:33.662Z,1012.71
2016-06-28T00:16:03.672Z,1012.67
2016-06-28T00:16:33.698Z,1012.69
2016-06-28T00:17:03.693Z,1012.67
2016-06-28T00:17:33.715Z,1012.71
2016-06-28T00:18:03.709Z,1012.69
2016-06-28T00:18:33.762Z,1012.71
2016-06-28T00:19:03.981Z,1012.74
2016-06-28T00:19:33.761Z,1012.69
2016-06-28T00:20:03.766Z,1012.73
2016-06-28T00:20:33.794Z,1012.73
2016-06-28T00:21:03.837Z,1012.67
2016-06-28T00:21:33.822Z,1012.71
2016-06-28T00:22:03.835Z,1012.7
2016-06-28T00:22:33.833Z,1012.68
2016-06-28T00:23:03.883Z,1012.74
2016-06-28T00:23:33.889Z,1012.71
2016-06-28T00:24:03.939Z,1012.76
2016-06-28T00:24:33.926Z,1012.73
2016-06-28T00:25:04.003Z,1012.75
2016-06-28T00:25:33.949Z,1012.68
2016-06-28T00:26:03.958Z,1012.7
2016-06-28T00:26:33.968Z,1012.7
2016-06-28T00:27:04.011Z,1012.71
2016-06-28T00:27:34.007Z,1012.7
2016-06-28T00:28:04.022Z,1012.66
2016-06-28T00:28:34.028Z,1012.68
2016-06-28T00:29:04.057Z,1012.7
2016-06-28T00:29:34.079Z,1012.7
2016-06-28T00:30:04.126Z,1012.65
2016-06-28T00:30:34.093Z,1012.62
2016-06-28T00:31:04.097Z,1012.63
2016-06-28T00:31:34.107Z,1012.64
2016-06-28T00:32:04.205Z,1012.64
2016-06-28T00:32:34.151Z,1012.67
2016-06-28T00:33:04.191Z,1012.66
2016-06-28T00:33:34.185Z,1012.61
2016-06-28T00:34:04.238Z,1012.62
2016-06-28T00:34:34.226Z,1012.6
2016-06-28T00:35:04.216Z,1012.61
2016-06-28T00:35:34.249Z,1012.61
2016-06-28T00:36:04.287Z,1012.6
2016-06-28T00:36:34.322Z,1012.61
2016-06-28T00:37:04.299Z,1012.58
2016-06-28T00:37:34.302Z,1012.62
2016-06-28T00:38:04.301Z,1012.6
2016-06-28T00:38:34.321Z,1012.56
2016-06-28T00:39:04.371Z,1012.59
2016-06-28T00:39:34.362Z,1012.6
2016-06-28T00:40:03.790Z,1012.61
2016-06-28T00:40:34.390Z,1012.6
2016-06-28T00:41:04.406Z,1012.61
2016-06-28T00:41:34.412Z,1012.6
2016-06-28T00:42:04.444Z,1012.6
2016-06-28T00:42:34.455Z,1012.6
2016-06-28T00:43:04.468Z,1012.62
2016-06-28T00:43:34.482Z,1012.63
2016-06-28T00:44:04.492Z,1012.62
2016-06-28T00:44:34.530Z,1012.65
2016-06-28T00:45:04.531Z,1012.64
2016-06-28T00:45:34.527Z,1012.68
2016-06-28T00:46:04.581Z,1012.65
2016-06-28T00:46:34.582Z,1012.72
2016-06-28T00:47:04.590Z,1012.66
2016-06-28T00:47:34.582Z,1012.7
2016-06-28T00:48:04.622Z,1012.7
2016-06-28T00:48:34.010Z,1012.68
2016-06-28T00:49:04.643Z,1012.72
2016-06-28T00:49:34.706Z,1012.7
2016-06-28T00:50:04.683Z,1012.74
2016-06-28T00:50:34.683Z,1012.75
2016-06-28T00:51:04.691Z,1012.73
2016-06-28T00:51:34.743Z,1012.73
2016-06-28T00:52:04.725Z,1012.71
2016-06-28T00:52:34.779Z,1012.71
2016-06-28T00:53:04.748Z,1012.7
2016-06-28T00:53:34.786Z,1012.72
2016-06-28T00:54:04.802Z,1012.7
2016-06-28T00:54:34.830Z,1012.68
2016-06-28T00:55:04.811Z,1012.67
2016-06-28T00:55:34.838Z,1012.7
2016-06-28T00:56:04.833Z,1012.7
2016-06-28T00:56:34.878Z,1012.71
2016-06-28T00:57:04.884Z,1012.69
2016-06-28T00:57:34.906Z,1012.69
2016-06-28T00:58:04.887Z,1012.72
2016-06-28T00:58:34.965Z,1012.69
2016-06-28T00:59:04.930Z,1012.76
2016-06-28T00:59:34.930Z,1012.74
2016-06-28T01:00:04.958Z,1012.71
2016-06-28T01:00:34.969Z,1012.67
2016-06-28T01:01:05.010Z,1012.72
2016-06-28T01:01:35.025Z,1012.7
2016-06-28T01:02:05.045Z,1012.71
2016-06-28T01:02:35.028Z,1012.71
2016-06-28T01:03:05.045Z,1012.75
2016-06-28T01:03:35.288Z,1012.73
2016-06-28T01:04:05.080Z,1012.74
2016-06-28T01:04:35.088Z,1012.79
2016-06-28T01:05:04.502Z,1012.77
2016-06-28T01:05:35.109Z,1012.75
2016-06-28T01:06:05.165Z,1012.77
2016-06-28T01:06:35.150Z,1012.75
2016-06-28T01:07:05.194Z,1012.76
2016-06-28T01:07:35.178Z,1012.71
2016-06-28T01:08:05.197Z,1012.68
2016-06-28T01:08:35.187Z,1012.72
2016-06-28T01:09:05.235Z,1012.7
2016-06-28T01:09:35.236Z,1012.7
2016-06-28T01:10:05.271Z,1012.7
2016-06-28T01:10:35.265Z,1012.67
2016-06-28T01:11:05.261Z,1012.65
2016-06-28T01:11:35.277Z,1012.69
2016-06-28T01:12:05.307Z,1012.72
2016-06-28T01:12:35.324Z,1012.69
2016-06-28T01:13:05.369Z,1012.7
2016-06-28T01:13:35.340Z,1012.66
2016-06-28T01:14:05.363Z,1012.68
2016-06-28T01:14:35.381Z,1012.71
2016-06-28T01:15:05.387Z,1012.7
2016-06-28T01:15:35.405Z,1012.65
2016-06-28T01:16:05.437Z,1012.67
2016-06-28T01:16:35.442Z,1012.69
2016-06-28T01:17:05.452Z,1012.65
2016-06-28T01:17:35.462Z,1012.6
2016-06-28T01:18:05.480Z,1012.61
2016-06-28T01:18:35.561Z,1012.59
2016-06-28T01:19:05.501Z,1012.58
2016-06-28T01:19:35.522Z,1012.58
2016-06-28T01:20:05.560Z,1012.55
2016-06-28T01:20:35.581Z,1012.53
2016-06-28T01:21:05.618Z,1012.51
2016-06-28T01:21:35.577Z,1012.51
2016-06-28T01:22:05.601Z,1012.49
2016-06-28T01:22:35.618Z,1012.49
2016-06-28T01:23:05.608Z,1012.48
2016-06-28T01:23:35.645Z,1012.45
2016-06-28T01:24:05.668Z,1012.42
2016-06-28T01:24:35.680Z,1012.45
2016-06-28T01:25:05.697Z,1012.45
2016-06-28T01:25:35.725Z,1012.41
2016-06-28T01:26:05.739Z,1012.41
2016-06-28T01:26:35.757Z,1012.45
2016-06-28T01:27:05.734Z,1012.41
2016-06-28T01:27:35.780Z,1012.4
2016-06-28T01:28:05.783Z,1012.43
2016-06-28T01:28:35.774Z,1012.41
2016-06-28T01:29:05.812Z,1012.41
2016-06-28T01:29:35.804Z,1012.4
2016-06-28T01:30:05.260Z,1012.41
2016-06-28T01:30:35.271Z,1012.45
2016-06-28T01:31:05.847Z,1012.41
2016-06-28T01:31:35.914Z,1012.46
2016-06-28T01:32:05.896Z,1012.43
2016-06-28T01:32:35.297Z,1012.41
2016-06-28T01:33:05.910Z,1012.43
2016-06-28T01:33:35.923Z,1012.45
2016-06-28T01:34:05.973Z,1012.46
2016-06-28T01:34:35.961Z,1012.46
2016-06-28T01:35:05.994Z,1012.45
2016-06-28T01:35:35.985Z,1012.49
2016-06-28T01:36:05.999Z,1012.5
2016-06-28T01:36:36.041Z,1012.44
2016-06-28T01:37:06.074Z,1012.45
2016-06-28T01:37:36.042Z,1012.48
2016-06-28T01:38:06.059Z,1012.46
2016-06-28T01:38:36.056Z,1012.48
2016-06-28T01:39:06.102Z,1012.47
2016-06-28T01:39:36.095Z,1012.47
2016-06-28T01:40:06.129Z,1012.46
2016-06-28T01:40:36.171Z,1012.48
2016-06-28T01:41:05.553Z,1012.47
2016-06-28T01:41:36.147Z,1012.45
2016-06-28T01:42:06.183Z,1012.46
2016-06-28T01:42:36.226Z,1012.44
2016-06-28T01:43:06.436Z,1012.44
2016-06-28T01:43:36.243Z,1012.43
2016-06-28T01:44:06.255Z,1012.44
2016-06-28T01:44:36.263Z,1012.43
2016-06-28T01:45:05.660Z,1012.48
2016-06-28T01:45:36.265Z,1012.45
2016-06-28T01:46:06.301Z,1012.47
2016-06-28T01:46:36.311Z,1012.51
2016-06-28T01:47:06.350Z,1012.51
2016-06-28T01:47:36.329Z,1012.45
2016-06-28T01:48:05.757Z,1012.49
2016-06-28T01:48:36.434Z,1012.54
2016-06-28T01:49:06.361Z,1012.54
2016-06-28T01:49:36.383Z,1012.52
2016-06-28T01:50:06.401Z,1012.55
2016-06-28T01:50:36.425Z,1012.5
2016-06-28T01:51:06.660Z,1012.53
2016-06-28T01:51:36.502Z,1012.51
2016-06-28T01:52:06.470Z,1012.53
2016-06-28T01:52:36.515Z,1012.52
2016-06-28T01:53:06.488Z,1012.56
2016-06-28T01:53:36.519Z,1012.53
2016-06-28T01:54:06.537Z,1012.54
2016-06-28T01:54:35.954Z,1012.53
2016-06-28T01:55:06.561Z,1012.59
2016-06-28T01:55:36.607Z,1012.6
2016-06-28T01:56:06.586Z,1012.56
2016-06-28T01:56:36.641Z,1012.57
2016-06-28T01:57:06.604Z,1012.55
2016-06-28T01:57:36.646Z,1012.57
2016-06-28T01:58:06.675Z,1012.56
2016-06-28T01:58:36.072Z,1012.61
2016-06-28T01:59:06.662Z,1012.55
2016-06-28T01:59:36.694Z,1012.56
2016-06-28T02:00:06.728Z,1012.57
2016-06-28T02:00:36.704Z,1012.55
2016-06-28T02:01:06.725Z,1012.57
2016-06-28T02:01:36.742Z,1012.56
2016-06-28T02:02:06.763Z,1012.54
2016-06-28T02:02:36.774Z,1012.52
2016-06-28T02:03:06.807Z,1012.53
2016-06-28T02:03:36.854Z,1012.5
2016-06-28T02:04:06.803Z,1012.49
2016-06-28T02:04:36.829Z,1012.49
2016-06-28T02:05:06.831Z,1012.47
2016-06-28T02:05:36.896Z,1012.47
2016-06-28T02:06:06.892Z,1012.5
2016-06-28T02:06:36.884Z,1012.49
2016-06-28T02:07:06.917Z,1012.47
2016-06-28T02:07:36.910Z,1012.47
2016-06-28T02:08:06.938Z,1012.45
2016-06-28T02:08:36.959Z,1012.42
2016-06-28T02:09:06.351Z,1012.47
2016-06-28T02:09:36.993Z,1012.47
2016-06-28T02:10:06.994Z,1012.47
2016-06-28T02:10:37.001Z,1012.48
2016-06-28T02:11:07.005Z,1012.47
2016-06-28T02:11:37.057Z,1012.45
2016-06-28T02:12:06.455Z,1012.47
2016-06-28T02:12:37.070Z,1012.47
2016-06-28T02:13:07.102Z,1012.45
2016-06-28T02:13:37.114Z,1012.46
2016-06-28T02:14:07.105Z,1012.41
2016-06-28T02:14:37.097Z,1012.45
2016-06-28T02:15:07.125Z,1012.44
2016-06-28T02:15:37.157Z,1012.42
2016-06-28T02:16:07.189Z,1012.4
2016-06-28T02:16:37.154Z,1012.45
2016-06-28T02:17:06.617Z,1012.45
2016-06-28T02:17:37.235Z,1012.46
2016-06-28T02:18:07.222Z,1012.49
2016-06-28T02:18:37.217Z,1012.46
2016-06-28T02:19:07.251Z,1012.45
2016-06-28T02:19:37.270Z,1012.49
2016-06-28T02:20:07.249Z,1012.51
2016-06-28T02:20:37.293Z,1012.44
2016-06-28T02:21:07.305Z,1012.47
2016-06-28T02:21:37.331Z,1012.49
2016-06-28T02:22:07.368Z,1012.46
2016-06-28T02:22:37.330Z,1012.49
2016-06-28T02:23:07.393Z,1012.46
2016-06-28T02:23:37.394Z,1012.48
2016-06-28T02:24:07.414Z,1012.48
2016-06-28T02:24:37.431Z,1012.51
2016-06-28T02:25:07.444Z,1012.49
2016-06-28T02:25:37.465Z,1012.49
2016-06-28T02:26:07.474Z,1012.51
2016-06-28T02:26:37.478Z,1012.5
2016-06-28T02:27:07.501Z,1012.46
2016-06-28T02:27:37.492Z,1012.47
2016-06-28T02:28:07.524Z,1012.45
2016-06-28T02:28:37.750Z,1012.45
2016-06-28T02:29:07.538Z,1012.43
2016-06-28T02:29:37.550Z,1012.46
2016-06-28T02:30:07.602Z,1012.39
2016-06-28T02:30:37.598Z,1012.41
2016-06-28T02:31:07.625Z,1012.42
2016-06-28T02:31:37.663Z,1012.39
2016-06-28T02:32:07.660Z,1012.42
2016-06-28T02:32:37.667Z,1012.42
2016-06-28T02:33:07.678Z,1012.37
2016-06-28T02:33:37.676Z,1012.36
2016-06-28T02:34:07.725Z,1012.38
2016-06-28T02:34:37.680Z,1012.4
2016-06-28T02:35:07.724Z,1012.37
2016-06-28T02:35:37.727Z,1012.37
2016-06-28T02:36:07.720Z,1012.41
2016-06-28T02:36:37.778Z,1012.37
2016-06-28T02:37:07.760Z,1012.41
2016-06-28T02:37:37.797Z,1012.46
2016-06-28T02:38:07.796Z,1012.47
2016-06-28T02:38:37.817Z,1012.48
2016-06-28T02:39:07.817Z,1012.45
2016-06-28T02:39:37.850Z,1012.46
2016-06-28T02:40:07.905Z,1012.49
2016-06-28T02:40:37.866Z,1012.48
2016-06-28T02:41:07.911Z,1012.47
2016-06-28T02:41:37.946Z,1012.48
2016-06-28T02:42:07.307Z,1012.46
2016-06-28T02:42:37.942Z,1012.44
2016-06-28T02:43:07.926Z,1012.43
2016-06-28T02:43:37.971Z,1012.42
2016-06-28T02:44:07.992Z,1012.45
2016-06-28T02:44:37.997Z,1012.45
2016-06-28T02:45:07.994Z,1012.44
2016-06-28T02:45:38.032Z,1012.49
2016-06-28T02:46:08.042Z,1012.5
2016-06-28T02:46:38.067Z,1012.53
2016-06-28T02:47:08.061Z,1012.53
2016-06-28T02:47:38.098Z,1012.54
2016-06-28T02:48:08.117Z,1012.52
2016-06-28T02:48:38.144Z,1012.48
2016-06-28T02:49:08.121Z,1012.5
2016-06-28T02:49:38.148Z,1012.51
2016-06-28T02:50:08.146Z,1012.51
2016-06-28T02:50:37.565Z,1012.5
2016-06-28T02:51:08.167Z,1012.52
2016-06-28T02:51:38.168Z,1012.52
2016-06-28T02:52:08.182Z,1012.5
2016-06-28T02:52:38.216Z,1012.54
2016-06-28T02:53:08.219Z,1012.53
2016-06-28T02:53:38.253Z,1012.49
2016-06-28T02:54:08.251Z,1012.48
2016-06-28T02:54:38.290Z,1012.53
2016-06-28T02:55:08.285Z,1012.57
2016-06-28T02:55:38.299Z,1012.56
2016-06-28T02:56:08.311Z,1012.57
2016-06-28T02:56:38.339Z,1012.59
2016-06-28T02:57:08.368Z,1012.55
2016-06-28T02:57:38.411Z,1012.6
2016-06-28T02:58:08.417Z,1012.59
2016-06-28T02:58:38.405Z,1012.61
2016-06-28T02:59:08.399Z,1012.59
2016-06-28T02:59:38.429Z,1012.62
2016-06-28T03:00:08.435Z,1012.61
2016-06-28T03:00:38.440Z,1012.62
2016-06-28T03:01:08.445Z,1012.62
2016-06-28T03:01:38.526Z,1012.65
2016-06-28T03:02:08.494Z,1012.62
2016-06-28T03:02:38.519Z,1012.64
2016-06-28T03:03:08.516Z,1012.61
2016-06-28T03:03:38.541Z,1012.68
2016-06-28T03:04:08.540Z,1012.64
2016-06-28T03:04:38.570Z,1012.62
2016-06-28T03:05:08.575Z,1012.6
2016-06-28T03:05:38.587Z,1012.68
2016-06-28T03:06:08.603Z,1012.64
2016-06-28T03:06:38.612Z,1012.61
2016-06-28T03:07:08.642Z,1012.6
2016-06-28T03:07:38.649Z,1012.6
2016-06-28T03:08:08.712Z,1012.64
2016-06-28T03:08:38.093Z,1012.6
2016-06-28T03:09:08.691Z,1012.62
2016-06-28T03:09:38.710Z,1012.59
2016-06-28T03:10:08.726Z,1012.61
2016-06-28T03:10:38.748Z,1012.65
2016-06-28T03:11:08.755Z,1012.66
2016-06-28T03:11:38.768Z,1012.61
2016-06-28T03:12:08.788Z,1012.63
2016-06-28T03:12:38.807Z,1012.58
2016-06-28T03:13:08.208Z,1012.58
2016-06-28T03:13:38.809Z,1012.58
2016-06-28T03:14:08.841Z,1012.52
2016-06-28T03:14:38.846Z,1012.53
2016-06-28T03:15:08.310Z,1012.56
2016-06-28T03:15:38.900Z,1012.53
2016-06-28T03:16:08.893Z,1012.52
2016-06-28T03:16:38.917Z,1012.53
2016-06-28T03:17:08.927Z,1012.55
2016-06-28T03:17:38.953Z,1012.56
2016-06-28T03:18:08.960Z,1012.59
2016-06-28T03:18:38.360Z,1012.64
2016-06-28T03:19:08.982Z,1012.55
2016-06-28T03:19:39.011Z,1012.57
2016-06-28T03:20:09.014Z,1012.58
2016-06-28T03:20:39.020Z,1012.6
2016-06-28T03:21:09.030Z,1012.59
2016-06-28T03:21:39.074Z,1012.57
2016-06-28T03:22:09.067Z,1012.58
2016-06-28T03:22:39.080Z,1012.59
2016-06-28T03:23:09.098Z,1012.56
2016-06-28T03:23:39.110Z,1012.52
2016-06-28T03:24:09.130Z,1012.54
2016-06-28T03:24:39.146Z,1012.53
2016-06-28T03:25:09.174Z,1012.53
2016-06-28T03:25:39.179Z,1012.53
2016-06-28T03:26:09.173Z,1012.51
2016-06-28T03:26:39.213Z,1012.54
2016-06-28T03:27:09.231Z,1012.52
2016-06-28T03:27:39.214Z,1012.5
2016-06-28T03:28:09.241Z,1012.51
2016-06-28T03:28:39.271Z,1012.5
2016-06-28T03:29:09.294Z,1012.49
2016-06-28T03:29:39.285Z,1012.46
2016-06-28T03:30:09.318Z,1012.46
2016-06-28T03:30:38.726Z,1012.47
2016-06-28T03:31:09.328Z,1012.46
2016-06-28T03:31:39.359Z,1012.46
2016-06-28T03:32:09.352Z,1012.45
2016-06-28T03:32:39.358Z,1012.45
2016-06-28T03:33:09.405Z,1012.46
2016-06-28T03:33:39.409Z,1012.45
2016-06-28T03:34:09.416Z,1012.43
2016-06-28T03:34:39.446Z,1012.43
2016-06-28T03:35:09.447Z,1012.39
2016-06-28T03:35:39.477Z,1012.44
2016-06-28T03:36:09.466Z,1012.43
2016-06-28T03:36:39.506Z,1012.51
2016-06-28T03:37:09.528Z,1012.45
2016-06-28T03:37:39.561Z,1012.46
2016-06-28T03:38:09.530Z,1012.43
2016-06-28T03:38:39.553Z,1012.45
2016-06-28T03:39:08.977Z,1012.43
2016-06-28T03:39:39.590Z,1012.41
2016-06-28T03:40:09.580Z,1012.45
2016-06-28T03:40:39.604Z,1012.42
2016-06-28T03:41:09.610Z,1012.41
2016-06-28T03:41:39.650Z,1012.41
2016-06-28T03:42:09.648Z,1012.43
2016-06-28T03:42:39.656Z,1012.45
2016-06-28T03:43:09.686Z,1012.4
2016-06-28T03:43:39.701Z,1012.42
2016-06-28T03:44:09.699Z,1012.4
2016-06-28T03:44:39.703Z,1012.42
2016-06-28T03:45:09.757Z,1012.47
2016-06-28T03:45:39.759Z,1012.41
2016-06-28T03:46:09.773Z,1012.47
2016-06-28T03:46:39.803Z,1012.48
2016-06-28T03:47:09.823Z,1012.47
2016-06-28T03:47:39.836Z,1012.49
2016-06-28T03:48:09.852Z,1012.51
2016-06-28T03:48:39.868Z,1012.53
2016-06-28T03:49:09.867Z,1012.53
2016-06-28T03:49:39.893Z,1012.57
2016-06-28T03:50:09.915Z,1012.52
2016-06-28T03:50:39.914Z,1012.59
2016-06-28T03:51:09.935Z,1012.55
2016-06-28T03:51:39.927Z,1012.55
2016-06-28T03:52:09.964Z,1012.56
2016-06-28T03:52:39.950Z,1012.59
2016-06-28T03:53:09.965Z,1012.57
2016-06-28T03:53:39.989Z,1012.54
2016-06-28T03:54:09.995Z,1012.57
2016-06-28T03:54:40.028Z,1012.53
2016-06-28T03:55:10.027Z,1012.51
2016-06-28T03:55:40.054Z,1012.49
2016-06-28T03:56:10.044Z,1012.49
2016-06-28T03:56:40.082Z,1012.47
2016-06-28T03:57:10.108Z,1012.49
2016-06-28T03:57:39.500Z,1012.46
2016-06-28T03:58:10.132Z,1012.47
2016-06-28T03:58:40.140Z,1012.49
2016-06-28T03:59:10.162Z,1012.52
2016-06-28T03:59:40.145Z,1012.55
2016-06-28T04:00:10.223Z,1012.54
2016-06-28T04:00:40.195Z,1012.5
2016-06-28T04:01:10.208Z,1012.54
2016-06-28T04:01:40.227Z,1012.49
2016-06-28T04:02:09.597Z,1012.51
2016-06-28T04:02:40.259Z,1012.52
2016-06-28T04:03:10.258Z,1012.53
2016-06-28T04:03:40.275Z,1012.51
2016-06-28T04:04:10.293Z,1012.48
2016-06-28T04:04:40.300Z,1012.46
2016-06-28T04:05:10.302Z,1012.49
2016-06-28T04:05:40.333Z,1012.49
2016-06-28T04:06:10.342Z,1012.51
2016-06-28T04:06:40.375Z,1012.5
2016-06-28T04:07:10.367Z,1012.51
2016-06-28T04:07:40.376Z,1012.52
2016-06-28T04:08:10.386Z,1012.5
2016-06-28T04:08:40.409Z,1012.5
2016-06-28T04:09:10.443Z,1012.49
2016-06-28T04:09:40.438Z,1012.48
2016-06-28T04:10:10.487Z,1012.48
2016-06-28T04:10:40.480Z,1012.48
2016-06-28T04:11:10.481Z,1012.51
2016-06-28T04:11:40.499Z,1012.5
2016-06-28T04:12:10.524Z,1012.51
2016-06-28T04:12:40.529Z,1012.47
2016-06-28T04:13:10.543Z,1012.48
2016-06-28T04:13:39.945Z,1012.5
2016-06-28T04:14:10.662Z,1012.5
2016-06-28T04:14:40.578Z,1012.48
2016-06-28T04:15:10.608Z,1012.5
2016-06-28T04:15:40.643Z,1012.49
2016-06-28T04:16:10.651Z,1012.47
2016-06-28T04:16:40.638Z,1012.47
2016-06-28T04:17:10.657Z,1012.49
2016-06-28T04:17:40.679Z,1012.48
2016-06-28T04:18:10.726Z,1012.45
2016-06-28T04:18:40.703Z,1012.46
2016-06-28T04:19:10.736Z,1012.51
2016-06-28T04:19:40.734Z,1012.45
2016-06-28T04:20:10.748Z,1012.41
2016-06-28T04:20:40.753Z,1012.44
2016-06-28T04:21:10.775Z,1012.45
2016-06-28T04:21:40.808Z,1012.42
2016-06-28T04:22:10.220Z,1012.43
2016-06-28T04:22:40.825Z,1012.47
2016-06-28T04:23:10.255Z,1012.47
2016-06-28T04:23:40.853Z,1012.46
2016-06-28T04:24:10.900Z,1012.46
2016-06-28T04:24:40.867Z,1012.42
2016-06-28T04:25:10.883Z,1012.46
2016-06-28T04:25:40.933Z,1012.42
2016-06-28T04:26:10.307Z,1012.44
2016-06-28T04:26:40.967Z,1012.47
2016-06-28T04:27:10.962Z,1012.45
2016-06-28T04:27:40.961Z,1012.43
2016-06-28T04:28:10.990Z,1012.46
2016-06-28T04:28:40.990Z,1012.48
2016-06-28T04:29:11.008Z,1012.48
2016-06-28T04:29:41.036Z,1012.48
2016-06-28T04:30:11.065Z,1012.49
2016-06-28T04:30:41.104Z,1012.49
2016-06-28T04:31:11.068Z,1012.5
2016-06-28T04:31:41.095Z,1012.5
2016-06-28T04:32:11.125Z,1012.45
2016-06-28T04:32:40.536Z,1012.5
2016-06-28T04:33:11.119Z,1012.49
2016-06-28T04:33:41.186Z,1012.5
2016-06-28T04:34:11.205Z,1012.53
2016-06-28T04:34:40.590Z,1012.53
2016-06-28T04:35:11.205Z,1012.55
2016-06-28T04:35:47.714Z,1012.53
2016-06-28T04:36:17.647Z,1012.52
2016-06-28T04:36:41.362Z,1012.54
2016-06-28T04:37:17.479Z,1012.56
2016-06-28T04:37:47.541Z,1012.58
2016-06-28T04:38:11.287Z,1012.58
2016-06-28T04:38:47.482Z,1012.59
2016-06-28T04:39:16.868Z,1012.55
2016-06-28T04:39:46.243Z,1012.59
2016-06-28T04:40:11.622Z,1012.6
2016-06-28T04:40:47.506Z,1012.55
2016-06-28T04:41:11.926Z,1012.57
2016-06-28T04:41:48.332Z,1012.58
2016-06-28T04:42:18.166Z,1012.56
2016-06-28T04:42:47.759Z,1012.61
2016-06-28T04:43:17.810Z,1012.57
2016-06-28T04:43:47.968Z,1012.56
2016-06-28T04:44:17.939Z,1012.53
2016-06-28T04:44:48.237Z,1012.53
2016-06-28T04:45:18.346Z,1012.53
2016-06-28T04:45:47.618Z,1012.57
2016-06-28T04:46:18.309Z,1012.52
2016-06-28T04:46:47.953Z,1012.54
2016-06-28T04:47:18.021Z,1012.55
2016-06-28T04:47:47.382Z,1012.54
2016-06-28T04:48:17.514Z,1012.56
2016-06-28T04:48:48.121Z,1012.59
2016-06-28T04:49:18.356Z,1012.57
2016-06-28T04:49:47.447Z,1012.58
2016-06-28T04:50:18.234Z,1012.56
2016-06-28T04:50:47.634Z,1012.6
2016-06-28T04:51:18.130Z,1012.56
2016-06-28T04:51:47.436Z,1012.6
2016-06-28T04:52:18.267Z,1012.6
2016-06-28T04:52:48.710Z,1012.55
2016-06-28T04:53:17.631Z,1012.55
2016-06-28T04:53:48.449Z,1012.59
2016-06-28T04:54:17.698Z,1012.55
2016-06-28T04:54:48.676Z,1012.56
2016-06-28T04:55:17.034Z,1012.57
2016-06-28T04:55:44.994Z,1012.57
2016-06-28T04:56:12.006Z,1012.55
2016-06-28T04:56:46.003Z,1012.55
2016-06-28T04:57:17.044Z,1012.55
2016-06-28T04:57:47.967Z,1012.59
2016-06-28T04:58:17.843Z,1012.53
2016-06-28T04:58:47.842Z,1012.53
2016-06-28T04:59:17.342Z,1012.49
2016-06-28T04:59:48.401Z,1012.54
2016-06-28T05:00:17.150Z,1012.49
2016-06-28T05:00:48.080Z,1012.49
2016-06-28T05:01:11.500Z,1012.49
2016-06-28T05:01:41.975Z,1012.51
2016-06-28T05:02:11.986Z,1012.51
2016-06-28T05:02:42.011Z,1012.52
2016-06-28T05:03:12.047Z,1012.52
2016-06-28T05:03:42.094Z,1012.54
2016-06-28T05:04:12.110Z,1012.54
2016-06-28T05:04:42.092Z,1012.51
2016-06-28T05:05:12.085Z,1012.5
2016-06-28T05:05:42.084Z,1012.52
2016-06-28T05:06:12.107Z,1012.53
2016-06-28T05:06:42.133Z,1012.53
2016-06-28T05:07:12.142Z,1012.5
2016-06-28T05:07:42.170Z,1012.51
2016-06-28T05:08:11.575Z,1012.57
2016-06-28T05:08:42.189Z,1012.59
2016-06-28T05:09:12.217Z,1012.62
2016-06-28T05:09:42.224Z,1012.63
2016-06-28T05:10:12.229Z,1012.67
2016-06-28T05:10:42.251Z,1012.73
2016-06-28T05:11:12.294Z,1012.71
2016-06-28T05:11:42.255Z,1012.65
2016-06-28T05:12:12.304Z,1012.66
2016-06-28T05:12:42.320Z,1012.6
2016-06-28T05:13:12.322Z,1012.59
2016-06-28T05:13:42.356Z,1012.53
2016-06-28T05:14:12.351Z,1012.53
2016-06-28T05:14:42.385Z,1012.49
2016-06-28T05:15:12.365Z,1012.54
2016-06-28T05:15:42.417Z,1012.47
2016-06-28T05:16:12.402Z,1012.48
2016-06-28T05:16:42.446Z,1012.5
2016-06-28T05:17:12.445Z,1012.52
2016-06-28T05:17:41.845Z,1012.5
2016-06-28T05:18:12.479Z,1012.51
2016-06-28T05:18:42.492Z,1012.53
2016-06-28T05:19:12.492Z,1012.56
2016-06-28T05:19:42.535Z,1012.56
2016-06-28T05:20:12.574Z,1012.53
2016-06-28T05:20:42.554Z,1012.54
2016-06-28T05:21:12.603Z,1012.6
2016-06-28T05:21:42.614Z,1012.61
2016-06-28T05:22:12.001Z,1012.66
2016-06-28T05:22:42.629Z,1012.66
2016-06-28T05:23:12.613Z,1012.68
2016-06-28T05:23:42.633Z,1012.63
2016-06-28T05:24:12.711Z,1012.61
2016-06-28T05:24:42.669Z,1012.63
2016-06-28T05:25:12.691Z,1012.63
2016-06-28T05:25:42.717Z,1012.63
2016-06-28T05:26:12.702Z,1012.66
2016-06-28T05:26:42.745Z,1012.59
2016-06-28T05:27:12.787Z,1012.64
2016-06-28T05:27:42.758Z,1012.65
2016-06-28T05:28:12.805Z,1012.65
2016-06-28T05:28:42.841Z,1012.64
2016-06-28T05:29:12.817Z,1012.62
2016-06-28T05:29:42.818Z,1012.65
2016-06-28T05:30:12.855Z,1012.65
2016-06-28T05:30:42.858Z,1012.68
2016-06-28T05:31:12.886Z,1012.68
2016-06-28T05:31:42.881Z,1012.67
2016-06-28T05:32:12.918Z,1012.67
2016-06-28T05:32:42.945Z,1012.63
2016-06-28T05:33:12.975Z,1012.68
2016-06-28T05:33:42.944Z,1012.64
2016-06-28T05:34:12.986Z,1012.63
2016-06-28T05:34:43.005Z,1012.66
2016-06-28T05:35:12.387Z,1012.65
2016-06-28T05:35:43.021Z,1012.64
2016-06-28T05:36:13.034Z,1012.66
2016-06-28T05:36:43.044Z,1012.66
2016-06-28T05:37:13.066Z,1012.66
2016-06-28T05:37:43.135Z,1012.64
2016-06-28T05:38:13.102Z,1012.67
2016-06-28T05:38:43.108Z,1012.7
2016-06-28T05:39:13.130Z,1012.65
2016-06-28T05:39:43.131Z,1012.64
2016-06-28T05:40:12.560Z,1012.67
2016-06-28T05:40:43.209Z,1012.63
2016-06-28T05:41:13.194Z,1012.62
2016-06-28T05:41:43.205Z,1012.62
2016-06-28T05:42:13.215Z,1012.62
2016-06-28T05:42:43.231Z,1012.61
2016-06-28T05:43:13.257Z,1012.64
2016-06-28T05:43:43.250Z,1012.61
2016-06-28T05:44:13.299Z,1012.62
2016-06-28T05:44:43.308Z,1012.63
2016-06-28T05:45:13.327Z,1012.62
2016-06-28T05:45:43.330Z,1012.61
2016-06-28T05:46:13.336Z,1012.66
2016-06-28T05:46:43.359Z,1012.66
2016-06-28T05:47:13.360Z,1012.63
2016-06-28T05:47:43.381Z,1012.66
2016-06-28T05:48:13.404Z,1012.65
2016-06-28T05:48:43.411Z,1012.69
2016-06-28T05:49:13.432Z,1012.67
2016-06-28T05:49:43.439Z,1012.68
2016-06-28T05:50:13.467Z,1012.66
2016-06-28T05:50:43.478Z,1012.67
2016-06-28T05:51:13.493Z,1012.63
2016-06-28T05:51:43.499Z,1012.65
2016-06-28T05:52:13.498Z,1012.66
2016-06-28T05:52:42.927Z,1012.6
2016-06-28T05:53:13.536Z,1012.6
2016-06-28T05:53:43.597Z,1012.58
2016-06-28T05:54:13.583Z,1012.58
2016-06-28T05:54:43.587Z,1012.6
2016-06-28T05:55:13.597Z,1012.6
2016-06-28T05:55:43.652Z,1012.6
2016-06-28T05:56:13.649Z,1012.63
2016-06-28T05:56:43.641Z,1012.6
2016-06-28T05:57:13.658Z,1012.58
2016-06-28T05:57:43.728Z,1012.61
2016-06-28T05:58:13.759Z,1012.61
2016-06-28T05:58:43.105Z,1012.6
2016-06-28T05:59:13.743Z,1012.59
2016-06-28T05:59:43.795Z,1012.58
2016-06-28T06:00:13.781Z,1012.59
2016-06-28T06:00:43.797Z,1012.58
2016-06-28T06:01:13.787Z,1012.6
2016-06-28T06:01:43.838Z,1012.58
2016-06-28T06:02:13.821Z,1012.57
2016-06-28T06:02:43.835Z,1012.61
2016-06-28T06:03:13.852Z,1012.56
2016-06-28T06:03:43.888Z,1012.56
2016-06-28T06:04:14.093Z,1012.55